Time;durP1;ratioP1;P1;durP2;ratioP2;P2;SDS_P1;SDS_P2;PMS_P1;PMS_P2;Temp;Humidity;BMP_temperature;BMP_pressure;BME280_temperature;BME280_humidity;BME280_pressure;Samples;Min_cycle;Max_cycle;Signal;HPM_P1;HPM_P2
2022/01/08 00:00:40;;;;;;;16.77;8.63;;;0.90;99.90;-0.30;99622;;;;538956;260;24207;-78
2022/01/08 00:03:11;;;;;;;19.60;9.60;;;0.90;99.90;-0.30;99620;;;;543574;260;24109;-77
2022/01/08 00:05:36;;;;;;;21.60;11.53;;;0.90;99.90;-0.20;99614;;;;550966;256;24113;-76
2022/01/08 00:08:08;;;;;;;18.17;10.37;;;0.90;99.90;-0.20;99622;;;;538616;260;24155;-76
2022/01/08 00:10:31;;;;;;;30.20;18.20;;;0.90;99.90;-0.20;99613;;;;536671;258;34781;-78
2022/01/08 00:13:05;;;;;;;23.10;13.50;;;0.90;99.90;-0.20;99615;;;;551200;258;24112;-77
2022/01/08 00:15:27;;;;;;;22.83;14.37;;;0.90;99.90;-0.20;99614;;;;550630;253;24176;-79
2022/01/08 00:17:55;;;;;;;19.90;10.97;;;1.00;99.90;-0.20;99606;;;;538554;260;24098;-77
2022/01/08 00:20:23;;;;;;;25.03;12.53;;;1.00;99.90;-0.20;99617;;;;551173;259;24161;-77
2022/01/08 00:22:53;;;;;;;18.40;9.67;;;1.00;99.90;-0.10;99609;;;;539627;259;24138;-78
2022/01/08 00:25:20;;;;;;;19.77;11.27;;;1.00;99.90;-0.10;99612;;;;544336;260;25174;-79
2022/01/08 00:27:48;;;;;;;19.97;10.87;;;1.00;99.90;-0.10;99614;;;;539334;260;24140;-80
2022/01/08 00:30:16;;;;;;;25.93;12.23;;;1.00;99.90;-0.10;99620;;;;551897;256;24105;-77
2022/01/08 00:32:43;;;;;;;20.57;12.03;;;1.00;99.90;-0.10;99627;;;;539072;260;24122;-80
2022/01/08 00:35:11;;;;;;;37.00;18.92;;;1.00;99.90;-0.10;99633;;;;546718;255;35560;-79
2022/01/08 00:37:39;;;;;;;25.03;14.07;;;1.00;99.90;-0.10;99636;;;;543777;260;24094;-78
2022/01/08 00:40:08;;;;;;;30.47;19.07;;;1.10;99.90;-0.10;99636;;;;543599;260;24137;-78
2022/01/08 00:42:36;;;;;;;19.70;11.77;;;1.00;99.90;0.00;99635;;;;551411;256;24123;-80
2022/01/08 00:45:04;;;;;;;22.10;11.00;;;1.10;99.90;0.00;99635;;;;543431;258;24127;-77
2022/01/08 00:47:36;;;;;;;17.63;10.40;;;1.10;99.90;0.00;99628;;;;551248;256;24123;-79
2022/01/08 00:50:00;;;;;;;24.07;10.77;;;1.10;99.90;0.00;99639;;;;551209;256;24127;-78
2022/01/08 00:52:28;;;;;;;17.70;9.50;;;1.20;99.90;0.00;99635;;;;528670;264;24151;-77
2022/01/08 00:54:56;;;;;;;17.03;10.17;;;1.10;99.90;0.00;99637;;;;546925;256;24096;-77
2022/01/08 00:57:25;;;;;;;21.53;10.47;;;1.10;99.90;0.00;99634;;;;543801;260;24104;-77
2022/01/08 00:59:53;;;;;;;16.47;9.43;;;1.10;99.90;0.00;99639;;;;538869;260;24116;-78
2022/01/08 01:02:21;;;;;;;20.93;11.03;;;1.10;99.90;0.00;99626;;;;538903;260;24116;-77
2022/01/08 01:04:49;;;;;;;17.07;10.07;;;1.20;99.90;0.00;99617;;;;551479;259;24126;-77
2022/01/08 01:07:19;;;;;;;19.80;9.87;;;1.20;99.90;0.00;99616;;;;538659;260;24125;-77
2022/01/08 01:09:44;;;;;;;17.07;9.70;;;1.20;99.90;0.00;99614;;;;550809;260;24147;-77
2022/01/08 01:12:13;;;;;;;14.97;9.30;;;1.20;99.90;0.00;99616;;;;538756;260;24181;-78
2022/01/08 01:14:40;;;;;;;15.57;10.33;;;1.20;99.90;0.00;99615;;;;538548;260;24153;-78
2022/01/08 01:17:08;;;;;;;15.60;10.03;;;1.20;99.90;0.10;99602;;;;538540;260;24125;-78
2022/01/08 01:19:36;;;;;;;19.83;11.10;;;1.20;99.90;0.00;99603;;;;538570;260;24148;-78
2022/01/08 01:22:05;;;;;;;14.57;8.53;;;1.20;99.90;0.00;99612;;;;538578;260;24117;-74
2022/01/08 01:24:35;;;;;;;15.73;9.30;;;1.10;99.90;-0.10;99612;;;;538625;260;24126;-77
2022/01/08 01:48:30;;;;;;;24.63;12.20;;;1.00;99.90;-0.10;99595;;;;551612;259;24146;-77
2022/01/08 01:50:55;;;;;;;19.20;11.87;;;1.10;99.90;-0.10;99613;;;;543711;259;24112;-78
2022/01/08 01:53:23;;;;;;;20.80;10.57;;;1.00;99.90;-0.10;99597;;;;538920;260;24114;-78
2022/01/08 01:55:51;;;;;;;15.40;10.23;;;1.00;99.90;-0.10;99597;;;;543493;259;24119;-78
2022/01/08 01:58:23;;;;;;;19.30;9.27;;;1.00;99.90;-0.10;99588;;;;551319;260;24138;-79
2022/01/08 02:00:47;;;;;;;30.42;19.20;;;1.00;99.90;-0.10;99597;;;;546436;252;35550;-77
2022/01/08 02:03:14;;;;;;;27.60;14.67;;;1.00;99.90;-0.10;99587;;;;533967;264;24080;-79
2022/01/08 02:05:47;;;;;;;23.00;12.90;;;1.00;99.90;-0.10;99588;;;;543446;260;24135;-76
2022/01/08 02:08:13;;;;;;;19.43;10.47;;;1.10;99.90;-0.10;99582;;;;551303;253;24124;-76
2022/01/08 02:10:40;;;;;;;21.73;10.87;;;1.10;99.90;-0.10;99582;;;;551156;259;24125;-80
2022/01/08 02:13:08;;;;;;;18.40;10.87;;;1.10;99.90;-0.10;99575;;;;538549;260;24129;-79
2022/01/08 02:15:36;;;;;;;18.87;11.00;;;1.10;99.90;-0.10;99585;;;;538678;260;24098;-80
2022/01/08 02:18:04;;;;;;;15.93;9.97;;;1.00;99.90;-0.10;99570;;;;551162;256;24208;-78
2022/01/08 02:20:35;;;;;;;24.33;11.63;;;1.00;99.90;0.00;99577;;;;551284;256;24124;-78
2022/01/08 02:22:59;;;;;;;18.03;11.03;;;1.10;99.90;-0.10;99568;;;;539124;260;24128;-77
2022/01/08 02:25:27;;;;;;;16.90;9.60;;;1.10;99.90;-0.10;99565;;;;538578;260;24140;-77
2022/01/08 02:27:55;;;;;;;21.07;10.60;;;1.10;99.90;-0.10;99557;;;;538590;260;24134;-77
2022/01/08 02:30:23;;;;;;;19.37;10.57;;;1.10;99.90;-0.10;99557;;;;551101;259;24124;-77
2022/01/08 02:32:51;;;;;;;20.67;10.20;;;1.10;99.90;-0.10;99564;;;;538707;260;24106;-77
2022/01/08 02:35:22;;;;;;;19.60;10.73;;;1.00;99.90;-0.10;99562;;;;543257;260;24133;-77
2022/01/08 02:37:48;;;;;;;16.20;10.37;;;1.10;99.90;-0.10;99565;;;;550988;256;24151;-76
2022/01/08 02:40:18;;;;;;;17.50;10.07;;;1.00;99.90;0.00;99566;;;;551471;256;24130;-76
2022/01/08 02:42:51;;;;;;;15.43;9.73;;;1.10;99.90;-0.10;99564;;;;551451;258;24117;-77
2022/01/08 02:45:12;;;;;;;18.97;11.27;;;1.10;99.90;0.00;99565;;;;543471;259;24100;-77
2022/01/08 02:47:41;;;;;;;16.87;11.00;;;1.10;99.90;0.00;99562;;;;540009;260;24191;-76
2022/01/08 02:50:12;;;;;;;18.33;9.87;;;1.10;99.90;0.00;99553;;;;552388;259;24112;-77
2022/01/08 02:52:42;;;;;;;21.17;10.87;;;1.10;99.90;0.00;99550;;;;551908;255;24123;-76
2022/01/08 02:55:13;;;;;;;19.37;8.80;;;1.20;99.90;0.00;99554;;;;551768;258;24191;-77
2022/01/08 02:57:38;;;;;;;14.53;9.13;;;1.10;99.90;0.00;99561;;;;551869;255;24148;-77
2022/01/08 03:00:09;;;;;;;19.07;11.50;;;1.10;99.90;0.00;99551;;;;551640;258;24215;-76
2022/01/08 03:02:34;;;;;;;20.53;11.33;;;1.10;99.90;0.00;99555;;;;543669;256;24135;-77
2022/01/08 03:05:02;;;;;;;21.27;12.33;;;1.10;99.90;-0.10;99549;;;;543494;260;24106;-78
2022/01/08 03:07:31;;;;;;;18.47;9.37;;;1.10;99.90;0.00;99549;;;;539044;260;24205;-79
2022/01/08 03:09:59;;;;;;;21.63;11.50;;;1.10;99.90;0.00;99542;;;;538833;260;24094;-78
2022/01/08 03:12:28;;;;;;;16.50;9.77;;;1.10;99.90;-0.10;99549;;;;538739;260;24162;-77
2022/01/08 03:14:56;;;;;;;17.73;10.20;;;1.00;99.90;-0.10;99551;;;;551449;255;24157;-77
2022/01/08 03:17:24;;;;;;;27.53;10.70;;;1.10;99.90;-0.10;99551;;;;551323;259;24346;-76
2022/01/08 03:19:53;;;;;;;17.97;10.37;;;1.00;99.90;-0.10;99554;;;;551468;260;24123;-78
2022/01/08 03:22:20;;;;;;;17.83;10.17;;;1.10;99.90;-0.10;99545;;;;538550;260;24121;-77
2022/01/08 03:24:48;;;;;;;18.40;11.93;;;1.00;99.90;-0.10;99542;;;;543384;260;24176;-76
2022/01/08 03:27:16;;;;;;;19.43;10.77;;;1.00;99.90;-0.10;99542;;;;538627;260;24108;-79
2022/01/08 03:29:44;;;;;;;20.60;11.07;;;1.00;99.90;-0.20;99541;;;;543142;260;24130;-75
2022/01/08 03:32:12;;;;;;;22.73;10.60;;;1.00;99.90;-0.10;99541;;;;551183;258;24109;-77
2022/01/08 03:34:40;;;;;;;18.63;10.53;;;1.00;99.90;-0.10;99539;;;;538584;260;24118;-77
2022/01/08 03:37:12;;;;;;;17.03;10.17;;;1.00;99.90;-0.10;99538;;;;551208;258;24147;-77
2022/01/08 03:39:36;;;;;;;15.23;10.23;;;1.00;99.90;-0.10;99538;;;;550918;255;24118;-77
2022/01/08 03:42:03;;;;;;;18.07;10.13;;;1.00;99.90;-0.10;99543;;;;538482;260;24119;-78
2022/01/08 03:44:32;;;;;;;16.03;9.43;;;1.00;99.90;-0.10;99527;;;;543417;260;24145;-78
2022/01/08 03:47:22;;;;;;;15.53;9.80;;;1.00;99.90;-0.10;99530;;;;538624;260;24202;-77
2022/01/08 03:49:27;;;;;;;21.53;9.40;;;1.00;99.90;-0.10;99529;;;;543086;257;24158;-77
2022/01/08 03:51:55;;;;;;;18.03;10.03;;;1.00;99.90;-0.20;99524;;;;538589;260;24137;-77
2022/01/08 03:54:24;;;;;;;23.03;10.70;;;0.90;99.90;-0.20;99521;;;;543572;260;24114;-77
2022/01/08 03:56:52;;;;;;;17.57;10.60;;;0.90;99.90;-0.20;99529;;;;551793;259;24103;-77
2022/01/08 03:59:20;;;;;;;15.43;9.43;;;0.90;99.90;-0.20;99523;;;;552151;255;24163;-76
2022/01/08 04:01:48;;;;;;;21.57;10.90;;;0.90;99.90;-0.20;99514;;;;552296;259;24162;-76
2022/01/08 04:04:17;;;;;;;15.47;10.63;;;1.00;99.90;-0.20;99525;;;;552229;259;24179;-76
2022/01/08 04:06:46;;;;;;;16.60;9.37;;;0.90;99.90;-0.20;99511;;;;539164;260;24142;-76
2022/01/08 04:09:14;;;;;;;16.40;10.80;;;1.00;99.90;-0.20;99510;;;;551948;259;24136;-77
2022/01/08 04:11:42;;;;;;;14.07;9.47;;;0.90;99.90;-0.20;99507;;;;542090;261;24070;-77
2022/01/08 04:14:13;;;;;;;18.93;10.03;;;1.00;99.90;-0.20;99507;;;;539376;260;24168;-76
2022/01/08 04:16:41;;;;;;;16.53;10.10;;;0.90;99.90;-0.20;99518;;;;543858;260;24109;-77
2022/01/08 04:19:05;;;;;;;14.40;10.40;;;0.90;99.90;-0.20;99505;;;;551419;260;24201;-76
2022/01/08 04:24:06;;;;;;;18.90;10.53;;;1.00;99.90;-0.20;99501;;;;551727;257;24111;-76
2022/01/08 04:26:34;;;;;;;22.97;11.03;;;0.90;99.90;-0.20;99502;;;;543755;260;24158;-76
2022/01/08 04:29:04;;;;;;;19.33;10.20;;;0.90;99.90;-0.20;99504;;;;539127;260;25195;-76
2022/01/08 04:31:29;;;;;;;20.00;10.67;;;0.90;99.90;-0.20;99497;;;;551636;254;24136;-76
2022/01/08 04:33:57;;;;;;;16.97;10.10;;;0.90;99.90;-0.20;99492;;;;538989;260;24195;-76
2022/01/08 04:36:25;;;;;;;21.83;10.23;;;0.90;99.90;-0.20;99499;;;;538942;260;24108;-77
2022/01/08 04:38:54;;;;;;;16.10;9.07;;;0.90;99.90;-0.20;99488;;;;543584;260;25152;-75
2022/01/08 04:41:22;;;;;;;18.93;10.40;;;0.90;99.90;-0.20;99488;;;;551456;255;24132;-77
2022/01/08 04:43:50;;;;;;;18.40;11.03;;;0.90;99.90;-0.20;99494;;;;551482;259;24147;-77
2022/01/08 04:46:18;;;;;;;17.20;9.57;;;1.00;99.90;-0.20;99494;;;;538938;260;24174;-76
2022/01/08 04:48:46;;;;;;;17.27;10.07;;;0.90;99.90;-0.20;99492;;;;538955;260;24112;-76
2022/01/08 04:51:13;;;;;;;16.90;10.33;;;0.90;99.90;-0.20;99494;;;;538985;260;24101;-76
2022/01/08 04:53:42;;;;;;;21.10;10.57;;;0.90;99.90;-0.20;99484;;;;538908;260;24179;-77
2022/01/08 04:56:10;;;;;;;17.80;10.90;;;0.90;99.90;-0.20;99493;;;;538903;260;24138;-76
2022/01/08 04:58:38;;;;;;;20.57;10.70;;;0.90;99.90;-0.20;99485;;;;543625;260;24156;-76
2022/01/08 05:01:06;;;;;;;18.50;11.53;;;0.90;99.90;-0.20;99481;;;;538953;260;24118;-76
2022/01/08 05:03:34;;;;;;;19.13;10.57;;;0.90;99.90;-0.20;99482;;;;543219;260;24135;-77
2022/01/08 05:06:02;;;;;;;20.27;10.33;;;0.90;99.90;-0.20;99478;;;;538672;260;24109;-76
2022/01/08 05:08:30;;;;;;;17.27;11.07;;;0.90;99.90;-0.20;99478;;;;539245;259;24167;-77
2022/01/08 05:10:58;;;;;;;21.87;10.47;;;0.90;99.90;-0.20;99473;;;;539747;260;24128;-78
2022/01/08 05:13:26;;;;;;;16.00;9.37;;;0.90;99.90;-0.20;99476;;;;539380;260;24112;-77
2022/01/08 05:15:57;;;;;;;19.57;9.70;;;0.90;99.90;-0.20;99483;;;;551786;259;24128;-79
2022/01/08 05:18:23;;;;;;;13.70;8.30;;;0.90;99.90;-0.20;99487;;;;539043;259;24131;-77
2022/01/08 05:21:05;;;;;;;14.70;9.47;;;0.90;99.90;-0.20;99472;;;;539014;260;24151;-78
2022/01/08 05:23:21;;;;;;;16.33;9.80;;;1.00;99.90;-0.20;99477;;;;539127;260;24166;-77
2022/01/08 05:25:53;;;;;;;17.00;10.47;;;0.90;99.90;-0.20;99468;;;;543662;258;24139;-77
2022/01/08 05:28:17;;;;;;;17.77;11.37;;;0.90;99.90;-0.20;99468;;;;551432;258;24104;-77
2022/01/08 05:30:45;;;;;;;12.33;8.83;;;0.90;99.90;-0.20;99479;;;;538781;260;24188;-77
2022/01/08 05:33:13;;;;;;;13.97;9.77;;;0.90;99.90;-0.20;99480;;;;543416;258;24121;-76
2022/01/08 05:35:41;;;;;;;11.90;9.03;;;0.90;99.90;-0.20;99469;;;;538906;260;24141;-77
2022/01/08 05:38:09;;;;;;;16.63;9.60;;;0.90;99.90;-0.20;99478;;;;538785;260;24110;-77
2022/01/08 05:40:40;;;;;;;17.37;10.10;;;0.90;99.90;-0.20;99468;;;;543617;258;24102;-76
2022/01/08 05:43:05;;;;;;;16.33;10.70;;;0.90;99.90;-0.10;99471;;;;551293;259;24223;-76
2022/01/08 05:45:33;;;;;;;17.47;10.63;;;1.00;99.90;-0.10;99480;;;;543199;260;24105;-78
2022/01/08 05:48:01;;;;;;;14.63;9.83;;;1.00;99.90;-0.10;99472;;;;538619;260;24157;-77
2022/01/08 05:50:29;;;;;;;19.27;9.90;;;1.00;99.90;-0.10;99473;;;;538587;260;24137;-76
2022/01/08 05:52:57;;;;;;;12.97;8.70;;;1.00;99.90;-0.20;99475;;;;538681;260;24117;-76
2022/01/08 05:55:25;;;;;;;12.93;9.37;;;1.00;99.90;-0.10;99470;;;;538650;260;24109;-77
2022/01/08 05:57:53;;;;;;;17.20;9.60;;;1.00;99.90;-0.10;99469;;;;538910;260;24100;-76
2022/01/08 06:00:21;;;;;;;14.93;9.33;;;1.00;99.90;-0.10;99470;;;;538653;260;24145;-77
2022/01/08 06:02:49;;;;;;;14.97;9.63;;;1.00;99.90;-0.20;99467;;;;538515;260;24187;-77
2022/01/08 06:05:17;;;;;;;16.23;9.57;;;1.00;99.90;-0.10;99472;;;;551470;254;24214;-76
2022/01/08 06:07:45;;;;;;;22.63;10.47;;;1.00;99.90;-0.10;99465;;;;538617;260;24122;-76
2022/01/08 06:10:12;;;;;;;15.33;9.57;;;1.00;99.90;-0.10;99464;;;;538711;260;24106;-76
2022/01/08 06:12:40;;;;;;;18.07;10.03;;;1.00;99.90;-0.10;99467;;;;538607;260;24154;-76
2022/01/08 06:15:08;;;;;;;15.73;9.97;;;1.00;99.90;-0.10;99462;;;;538525;260;24113;-76
2022/01/08 06:17:36;;;;;;;18.87;9.53;;;1.00;99.90;-0.20;99465;;;;538731;260;24105;-76
2022/01/08 06:20:04;;;;;;;13.97;9.50;;;0.90;99.90;-0.20;99465;;;;539230;259;24154;-76
2022/01/08 06:22:32;;;;;;;14.33;9.63;;;1.00;99.90;-0.20;99463;;;;552203;255;24136;-77
2022/01/08 06:25:00;;;;;;;16.13;9.50;;;0.90;99.90;-0.20;99467;;;;539429;260;24165;-77
2022/01/08 06:27:28;;;;;;;20.40;9.57;;;0.90;99.90;-0.20;99467;;;;539412;260;24122;-77
2022/01/08 06:29:57;;;;;;;16.60;10.73;;;0.90;99.90;-0.20;99473;;;;539162;260;24116;-76
2022/01/08 06:32:25;;;;;;;14.77;9.33;;;0.90;99.90;-0.20;99470;;;;539013;260;24108;-76
2022/01/08 06:34:52;;;;;;;14.57;9.83;;;1.00;99.90;-0.20;99480;;;;539141;260;24105;-76
2022/01/08 06:37:20;;;;;;;15.63;9.63;;;1.00;99.90;-0.10;99475;;;;538981;260;24174;-77
2022/01/08 06:39:50;;;;;;;18.40;11.53;;;1.00;99.90;-0.20;99480;;;;538934;260;24142;-77
2022/01/08 06:42:17;;;;;;;16.50;10.10;;;1.00;99.90;-0.20;99483;;;;538827;260;24136;-77
2022/01/08 06:44:45;;;;;;;16.37;10.93;;;0.90;99.90;-0.20;99478;;;;538769;260;24117;-77
2022/01/08 06:47:13;;;;;;;15.33;9.37;;;0.90;99.90;-0.20;99483;;;;538838;260;24133;-78
2022/01/08 06:49:41;;;;;;;16.03;9.80;;;0.90;99.90;-0.20;99483;;;;543484;258;24120;-78
2022/01/08 06:52:09;;;;;;;14.43;9.50;;;0.90;99.90;-0.10;99475;;;;538967;260;24108;-77
2022/01/08 06:54:37;;;;;;;15.57;8.27;;;1.00;99.90;-0.10;99482;;;;538851;260;24113;-78
2022/01/08 06:57:05;;;;;;;14.03;9.60;;;1.00;99.90;-0.10;99488;;;;543435;258;24172;-76
2022/01/08 06:59:33;;;;;;;13.57;9.33;;;1.00;99.90;-0.10;99484;;;;538576;260;24193;-77
2022/01/08 07:02:01;;;;;;;18.30;9.57;;;1.00;99.90;-0.10;99488;;;;538539;260;24121;-77
2022/01/08 07:04:30;;;;;;;15.43;9.23;;;1.00;99.90;-0.10;99495;;;;538740;260;24106;-76
2022/01/08 07:06:58;;;;;;;12.53;8.93;;;1.10;99.90;0.00;99492;;;;551437;260;24127;-77
2022/01/08 07:09:26;;;;;;;14.90;8.73;;;1.10;99.90;0.00;99486;;;;538919;260;24100;-77
2022/01/08 07:11:55;;;;;;;26.70;9.80;;;1.10;99.90;0.00;99487;;;;543598;258;24101;-76
2022/01/08 07:14:23;;;;;;;17.83;9.93;;;1.10;99.90;0.00;99480;;;;538952;260;24140;-76
2022/01/08 07:16:51;;;;;;;13.03;9.80;;;1.10;99.90;0.00;99487;;;;538964;260;24100;-76
2022/01/08 07:19:19;;;;;;;17.00;10.77;;;1.20;99.90;0.10;99481;;;;543599;260;24094;-76
2022/01/08 07:21:47;;;;;;;17.47;9.60;;;1.20;99.90;0.10;99485;;;;538908;260;24105;-76
2022/01/08 07:24:15;;;;;;;14.77;10.10;;;1.20;99.90;0.00;99480;;;;538907;260;24100;-76
2022/01/08 07:26:43;;;;;;;16.27;9.83;;;1.20;99.90;0.10;99476;;;;538977;260;24172;-76
2022/01/08 07:29:11;;;;;;;17.07;8.97;;;1.20;99.90;0.10;99470;;;;539007;260;24140;-76
2022/01/08 07:31:39;;;;;;;17.03;10.03;;;1.20;99.90;0.10;99463;;;;539479;259;24132;-76
2022/01/08 07:34:07;;;;;;;15.17;9.07;;;1.20;99.90;0.10;99470;;;;540014;260;24131;-76
2022/01/08 07:36:35;;;;;;;12.43;8.13;;;1.20;99.90;0.10;99467;;;;544415;258;24111;-76
2022/01/08 07:39:03;;;;;;;18.13;10.10;;;1.20;99.90;0.00;99471;;;;539731;260;24111;-76
2022/01/08 07:41:30;;;;;;;17.77;10.17;;;1.20;99.90;0.10;99470;;;;544098;260;24164;-76
2022/01/08 07:44:02;;;;;;;18.60;10.97;;;1.20;99.90;0.10;99464;;;;539381;260;24163;-76
2022/01/08 07:46:31;;;;;;;22.70;10.33;;;1.30;99.90;0.10;99466;;;;539414;260;24114;-77
2022/01/08 07:48:59;;;;;;;12.73;8.27;;;1.20;99.90;0.10;99470;;;;539394;260;24100;-77
2022/01/08 07:51:27;;;;;;;23.80;17.25;;;1.30;99.90;0.20;99466;;;;534470;260;35440;-76
2022/01/08 07:53:54;;;;;;;20.00;12.47;;;1.30;99.90;0.20;99473;;;;539110;260;24185;-77
2022/01/08 07:56:25;;;;;;;16.73;11.10;;;1.30;99.90;0.20;99480;;;;539139;260;25152;-77
2022/01/08 07:58:50;;;;;;;19.57;9.93;;;1.30;99.90;0.20;99477;;;;551695;254;24142;-78
2022/01/08 08:01:18;;;;;;;15.03;9.73;;;1.40;99.90;0.30;99476;;;;539172;260;25158;-77
2022/01/08 08:03:47;;;;;;;15.00;9.67;;;1.40;99.90;0.30;99468;;;;539160;260;25170;-78
2022/01/08 08:06:17;;;;;;;15.63;9.70;;;1.40;99.90;0.30;99477;;;;539135;260;25171;-78
2022/01/08 08:08:44;;;;;;;15.07;9.20;;;1.40;99.90;0.30;99481;;;;551031;255;25195;-78
2022/01/08 08:11:11;;;;;;;17.47;9.30;;;1.50;99.90;0.40;99475;;;;538576;260;24127;-78
2022/01/08 08:13:38;;;;;;;13.53;8.70;;;1.50;99.90;0.40;99476;;;;543167;260;24128;-79
2022/01/08 08:16:11;;;;;;;21.57;9.83;;;1.50;99.90;0.40;99465;;;;538645;260;24117;-78
2022/01/08 08:18:38;;;;;;;17.50;9.47;;;1.50;99.90;0.40;99464;;;;543196;256;24111;-78
2022/01/08 08:21:03;;;;;;;14.63;9.20;;;1.50;99.90;0.40;99459;;;;551147;254;24211;-77
2022/01/08 08:23:31;;;;;;;15.90;10.30;;;1.50;99.90;0.40;99456;;;;543242;258;24117;-78
2022/01/08 08:25:59;;;;;;;20.60;10.43;;;1.60;99.90;0.40;99446;;;;538719;260;24123;-78
2022/01/08 08:28:29;;;;;;;19.63;10.43;;;1.50;99.90;0.40;99437;;;;538610;260;24113;-78
2022/01/08 08:30:55;;;;;;;21.73;10.13;;;1.60;99.90;0.50;99441;;;;538496;260;24127;-78
2022/01/08 08:33:23;;;;;;;19.87;10.90;;;1.60;99.90;0.50;99439;;;;538740;260;24138;-79
2022/01/08 08:35:52;;;;;;;13.87;9.27;;;1.60;99.90;0.50;99438;;;;538567;260;24135;-78
2022/01/08 08:38:20;;;;;;;18.10;10.20;;;1.60;99.90;0.50;99442;;;;538711;260;24171;-78
2022/01/08 08:40:51;;;;;;;19.30;10.03;;;1.60;99.90;0.50;99441;;;;538603;260;24140;-77
2022/01/08 08:43:16;;;;;;;16.83;10.50;;;1.60;99.90;0.60;99444;;;;552041;258;24089;-78
2022/01/08 08:45:43;;;;;;;16.80;9.63;;;1.70;99.90;0.60;99431;;;;539701;259;26832;-77
2022/01/08 08:48:11;;;;;;;18.10;10.63;;;1.70;99.90;0.60;99440;;;;539324;260;24110;-77
2022/01/08 08:50:39;;;;;;;16.97;10.30;;;1.70;99.90;0.60;99443;;;;539352;260;24205;-76
2022/01/08 08:53:14;;;;;;;20.03;11.77;;;1.70;99.90;0.60;99444;;;;539063;260;24131;-76
2022/01/08 08:55:38;;;;;;;21.83;11.20;;;1.70;99.90;0.60;99439;;;;551579;256;24150;-77
2022/01/08 08:58:07;;;;;;;20.07;11.83;;;1.80;99.90;0.70;99442;;;;543642;260;24112;-75
2022/01/08 09:00:35;;;;;;;18.67;10.20;;;1.80;99.90;0.70;99430;;;;538936;260;24167;-77
2022/01/08 09:03:05;;;;;;;14.27;9.97;;;1.80;99.90;0.60;99442;;;;543474;258;24105;-78
2022/01/08 09:05:30;;;;;;;17.30;10.03;;;1.70;99.90;0.70;99438;;;;551100;253;24124;-77
2022/01/08 09:07:58;;;;;;;15.37;10.53;;;1.80;99.90;0.70;99440;;;;538930;260;24143;-77
2022/01/08 09:10:26;;;;;;;23.20;11.40;;;1.80;99.90;0.70;99425;;;;551703;260;24164;-78
2022/01/08 09:12:57;;;;;;;21.37;10.63;;;1.80;99.90;0.80;99423;;;;543822;260;24160;-78
2022/01/08 09:15:26;;;;;;;19.13;11.00;;;1.90;99.90;0.80;99414;;;;552479;255;24177;-77
2022/01/08 09:17:51;;;;;;;18.83;10.13;;;1.90;99.90;0.90;99423;;;;551621;254;24205;-78
2022/01/08 09:20:19;;;;;;;17.10;10.90;;;1.90;99.90;0.90;99428;;;;543622;260;24110;-76
2022/01/08 09:22:47;;;;;;;22.17;10.67;;;2.00;99.90;0.90;99429;;;;538917;260;24143;-77
2022/01/08 09:25:14;;;;;;;18.17;11.97;;;2.00;99.90;0.90;99424;;;;538884;260;24119;-78
2022/01/08 09:27:42;;;;;;;21.93;12.30;;;2.00;99.90;1.00;99424;;;;538955;260;24112;-77
2022/01/08 09:30:10;;;;;;;18.13;10.70;;;2.10;99.90;1.00;99422;;;;538913;260;24198;-78
2022/01/08 09:32:42;;;;;;;21.73;11.30;;;2.10;99.90;1.10;99419;;;;538930;260;24122;-77
2022/01/08 09:35:06;;;;;;;22.60;12.77;;;2.10;99.90;1.10;99425;;;;551363;259;24181;-77
2022/01/08 09:37:37;;;;;;;23.53;11.80;;;2.20;99.90;1.10;99420;;;;538974;260;24113;-77
2022/01/08 09:40:02;;;;;;;22.03;12.27;;;2.20;99.90;1.10;99423;;;;543746;260;24109;-76
2022/01/08 09:42:30;;;;;;;17.37;10.63;;;2.30;99.90;1.20;99408;;;;538888;260;24128;-77
2022/01/08 09:44:58;;;;;;;22.50;13.27;;;2.20;99.90;1.20;99418;;;;538965;260;24118;-77
2022/01/08 09:47:26;;;;;;;21.17;11.33;;;2.20;99.90;1.30;99409;;;;543579;258;24128;-77
2022/01/08 09:49:53;;;;;;;23.83;12.67;;;2.30;99.90;1.50;99410;;;;538950;260;24125;-76
2022/01/08 09:52:21;;;;;;;21.07;10.50;;;2.50;99.90;1.90;99410;;;;543615;259;24112;-77
2022/01/08 09:54:52;;;;;;;23.47;12.37;;;2.80;99.90;2.10;99399;;;;539522;259;24114;-76
2022/01/08 09:57:21;;;;;;;20.33;11.33;;;3.30;99.90;2.30;99407;;;;552294;252;24169;-77
2022/01/08 09:59:46;;;;;;;22.90;12.87;;;3.30;99.90;2.40;99401;;;;551944;255;24109;-78
2022/01/08 10:02:17;;;;;;;18.33;12.17;;;3.50;99.90;2.40;99412;;;;552196;255;24126;-77
2022/01/08 10:04:42;;;;;;;25.25;17.00;;;3.60;99.90;2.40;99410;;;;547047;254;35534;-79
2022/01/08 10:07:22;;;;;;;25.57;13.70;;;3.40;99.90;2.30;99413;;;;539287;260;24138;-79
2022/01/08 10:10:13;;;;;;;22.30;11.77;;;3.30;99.90;2.20;99405;;;;551797;260;24123;-79
2022/01/08 10:12:52;;;;;;;19.47;11.03;;;3.30;99.90;2.10;99393;;;;551372;260;24124;-79
2022/01/08 10:18:06;;;;;;;16.50;10.60;;;3.20;99.90;2.00;99402;;;;543420;260;24161;-77
2022/01/08 10:20:36;;;;;;;16.00;8.60;;;3.10;99.90;2.00;99398;;;;538967;260;24167;-77
2022/01/08 10:23:16;;;;;;;15.93;9.03;;;3.10;99.90;1.90;99400;;;;551381;255;24231;-77
2022/01/08 10:25:59;;;;;;;23.20;13.03;;;3.00;99.90;1.90;99403;;;;529523;264;24058;-77
2022/01/08 10:28:48;;;;;;;17.20;9.77;;;3.00;99.90;1.90;99400;;;;542306;258;24132;-78
2022/01/08 10:31:24;;;;;;;16.80;12.80;;;2.90;99.90;1.90;99393;;;;534214;262;24088;-78
2022/01/08 10:33:55;;;;;;;17.37;9.47;;;3.00;99.90;1.90;99389;;;;551242;259;24200;-79
2022/01/08 10:36:37;;;;;;;15.13;8.63;;;3.00;99.90;1.90;99389;;;;538039;260;24121;-77
2022/01/08 10:39:11;;;;;;;12.30;7.80;;;3.00;99.90;1.90;99384;;;;538545;260;24121;-76
2022/01/08 10:41:39;;;;;;;12.27;7.83;;;3.00;99.90;1.90;99379;;;;542740;260;24118;-77
2022/01/08 10:44:13;;;;;;;14.17;8.57;;;3.00;99.90;1.80;99380;;;;533654;265;24082;-76
2022/01/08 10:46:46;;;;;;;12.97;8.50;;;2.90;99.90;1.90;99384;;;;551060;259;24134;-77
2022/01/08 10:49:19;;;;;;;22.00;13.75;;;2.90;99.90;1.90;99387;;;;537829;260;35453;-77
2022/01/08 10:51:44;;;;;;;17.93;10.77;;;2.90;99.90;1.90;99385;;;;542788;260;24206;-77
2022/01/08 10:54:16;;;;;;;19.90;10.57;;;2.90;99.90;1.90;99379;;;;551056;254;24120;-77
2022/01/08 10:56:40;;;;;;;15.60;9.53;;;2.90;99.90;1.80;99373;;;;550734;254;24121;-77
2022/01/08 10:59:20;;;;;;;14.17;9.00;;;2.90;99.90;1.80;99370;;;;551010;256;24134;-78
2022/01/08 11:01:56;;;;;;;14.57;9.57;;;2.90;99.90;1.80;99377;;;;538387;260;24133;-78
2022/01/08 11:04:46;;;;;;;18.37;10.07;;;2.80;99.90;1.70;99374;;;;528877;265;24078;-76
2022/01/08 11:07:28;;;;;;;15.60;9.17;;;2.80;99.90;1.70;99373;;;;552330;252;24202;-76
2022/01/08 11:10:04;;;;;;;11.43;7.90;;;2.70;99.90;1.60;99371;;;;544395;259;24177;-76
2022/01/08 11:12:34;;;;;;;14.03;7.23;;;2.70;99.90;1.60;99368;;;;543979;257;24125;-77
2022/01/08 11:15:02;;;;;;;12.50;7.10;;;2.70;99.90;1.60;99370;;;;543500;257;24119;-76
2022/01/08 11:17:37;;;;;;;13.63;7.47;;;2.70;99.90;1.50;99374;;;;551615;253;24116;-75
2022/01/08 11:20:23;;;;;;;15.10;7.30;;;2.60;99.90;1.50;99360;;;;551401;256;24169;-76
2022/01/08 11:22:54;;;;;;;12.43;7.30;;;2.60;99.90;1.60;99365;;;;538831;260;24163;-77
2022/01/08 11:25:24;;;;;;;10.03;6.77;;;2.60;99.90;1.60;99357;;;;543235;260;24148;-77
2022/01/08 11:28:05;;;;;;;16.77;11.75;;;2.70;99.90;1.70;99357;;;;538677;260;46432;-77
2022/01/08 11:30:38;;;;;;;17.80;9.47;;;2.70;99.90;1.80;99349;;;;529500;264;24077;-78
2022/01/08 11:33:10;;;;;;;14.33;8.70;;;2.80;99.90;1.80;99345;;;;551289;252;24132;-77
2022/01/08 11:35:35;;;;;;;13.63;8.13;;;2.90;99.90;1.90;99350;;;;542985;260;24121;-77
2022/01/08 11:38:04;;;;;;;21.10;8.67;;;3.00;99.90;2.00;99344;;;;543254;260;24113;-78
2022/01/08 11:40:30;;;;;;;13.67;8.53;;;3.00;99.90;2.00;99342;;;;551084;254;24151;-77
2022/01/08 11:43:04;;;;;;;17.63;8.93;;;3.20;99.90;2.10;99341;;;;543111;260;24157;-76
2022/01/08 11:45:36;;;;;;;15.30;9.20;;;3.10;99.90;2.00;99353;;;;550901;259;24118;-77
2022/01/08 11:48:07;;;;;;;14.77;9.93;;;3.10;99.90;2.00;99342;;;;550917;252;24254;-76
2022/01/08 11:50:34;;;;;;;16.10;7.97;;;3.10;99.90;1.90;99343;;;;542934;256;24166;-77